Latest Weather Observations for Bedout Island

IDW60801

Issued at 12:35 pm WST Tuesday 16 September 2014 (issued every 30 minutes, with the page automatically refreshed every 10 minutes)

About weather observations | Map of weather stations | Latest weather observations for WA | Other Formats
Station Details ID: 004100 Name: BEDOUT ISLAND Lat: -19.59 Lon: 119.10 Height: 8.6 m
Data from the previous 72 hours. | See also: Recent months for locations in Western Australia
Date/Time
WST
Temp
°C
App
Temp
°C
Dew
Point
Rel
Hum
%
Delta-T
°C
Wind Press
QNH
hPa
Press
MSL
hPa
Rain
since 9 am
mm
Dir
 
Spd
km/h
Gust
km/h
Spd
kts
Gust
kts
16/12:30pm 27.9 30.8 22.4 72 3.7 NNE 11 15 6 8 1011.2 - -
16/12:00pm 28.5 30.8 22.7 71 3.9 NE 15 17 8 9 1011.8 1011.7 -
16/11:30am 28.7 30.8 23.1 71 3.8 NE 17 24 9 13 1012.0 - -
16/11:00am 27.7 29.3 22.9 75 3.3 NE 19 22 10 12 1012.3 - -
16/10:30am 27.1 29.1 22.9 78 2.9 ENE 17 24 9 13 1012.5 - -
16/10:00am 27.4 31.1 25.2 88 1.5 ENE 15 22 8 12 1012.7 - -
16/09:30am 26.5 31.9 26.0 97 0.4 E 9 20 5 11 1012.8 - -
16/09:00am 25.6 30.7 25.6 100 0.0 ENE 9 13 5 7 1012.8 1012.7 -
16/08:30am 25.0 29.7 25.0 100 0.0 ENE 9 11 5 6 1012.6 - -
16/08:00am 24.8 29.0 24.8 100 0.0 NE 11 13 6 7 1012.6 - -
16/07:30am 24.3 28.6 24.3 100 0.0 NNE 9 13 5 7 1012.4 - -
16/07:00am 23.5 27.0 23.5 100 0.0 NE 11 17 6 9 1012.3 - -
16/06:30am 22.9 25.3 22.9 100 0.0 NE 15 17 8 9 1011.7 - -
16/06:00am 22.6 24.8 22.6 100 0.0 ENE 15 19 8 10 1011.6 1011.5 -
16/05:30am 22.8 24.7 22.8 100 0.0 NE 17 24 9 13 1011.5 - -
16/05:00am 22.8 24.7 22.8 100 0.0 ENE 17 20 9 11 1011.2 - -
16/04:30am 22.9 26.0 22.9 100 0.0 NE 11 15 6 8 1011.0 - -
16/04:00am 23.1 24.8 23.1 100 0.0 ENE 19 22 10 12 1010.7 - -
16/03:30am 22.7 26.1 22.7 100 0.0 SSE 9 13 5 7 1010.6 - -
16/03:00am 22.7 26.1 22.7 100 0.0 SSE 9 11 5 6 1010.5 1010.4 -
16/02:30am 22.6 26.3 22.6 100 0.0 SW 7 11 4 6 1010.5 - -
16/02:00am 23.3 24.9 23.3 100 0.0 W 20 22 11 12 1010.3 - -
16/01:30am 23.3 24.6 23.3 100 0.0 W 22 24 12 13 1010.3 - -
16/01:00am 23.4 24.0 23.4 100 0.0 WNW 26 28 14 15 1010.6 - -
16/12:30am 23.5 24.1 23.5 100 0.0 W 26 28 14 15 1010.9 - -
16/12:00am 23.6 24.7 23.6 100 0.0 WNW 24 26 13 14 1011.2 1011.1 -
 
Date/Time
WST
Temp
°C
App
Temp
°C
Dew
Point
Rel
Hum
%
Delta-T
°C
Wind Press
QNH
hPa
Press
MSL
hPa
Rain
since 9 am
mm
Dir
 
Spd
km/h
Gust
km/h
Spd
kts
Gust
kts
15/11:30pm 23.6 25.0 23.6 100 0.0 WNW 22 24 12 13 1011.5 - -
15/11:00pm 23.7 25.6 23.7 100 0.0 WNW 20 24 11 13 1011.8 - -
15/10:30pm 24.0 24.8 23.8 99 0.1 WNW 26 30 14 16 1012.2 - -
15/10:00pm 23.9 25.8 23.7 99 0.1 WNW 20 24 11 13 1012.3 - -
15/09:30pm 23.5 25.7 23.2 98 0.2 NW 17 19 9 10 1012.4 - -
15/09:00pm 23.6 26.1 23.1 97 0.3 NNW 15 17 8 9 1012.4 1012.3 -
15/08:30pm 23.8 26.4 23.3 97 0.3 NNW 15 19 8 10 1012.2 - -
15/08:00pm 24.0 25.8 23.3 96 0.5 NNW 19 24 10 13 1012.0 - -
15/07:30pm 24.2 24.7 23.3 95 0.6 NNW 26 30 14 16 1011.4 - -
15/07:00pm 24.2 26.0 23.2 94 0.7 N 19 24 10 13 1011.5 - -
15/06:30pm 24.2 26.1 22.8 92 0.9 N 17 20 9 11 1011.3 - -
15/06:00pm 24.4 26.3 22.8 91 1.1 N 17 19 9 10 1011.1 1011.0 -
15/05:30pm 24.9 26.9 23.0 89 1.3 N 17 19 9 10 1010.8 - -
15/05:00pm 25.6 27.8 23.3 87 1.6 N 17 20 9 11 1010.8 - -
15/04:30pm 26.2 28.0 23.3 84 2.0 NNE 19 20 10 11 1010.8 - -
15/04:00pm 26.8 28.7 23.5 82 2.3 NNE 19 20 10 11 1010.6 - -
15/03:30pm 27.1 28.9 23.3 80 2.6 NNE 19 22 10 12 1010.8 - -
15/03:00pm 27.6 29.3 23.4 78 2.9 NNE 20 22 11 12 1010.8 1010.7 -
15/02:30pm 28.3 30.2 23.7 76 3.2 NNE 20 24 11 13 1010.9 - -
15/02:00pm 28.5 30.5 23.6 75 3.4 NNE 19 20 10 11 1011.0 - -
15/01:30pm 28.6 30.8 23.9 75 3.2 NE 19 20 10 11 1011.3 - -
15/01:00pm 27.8 29.7 23.4 77 3.0 NE 19 22 10 12 1011.5 - -
15/12:30pm 27.6 29.2 23.2 77 3.0 NE 20 24 11 13 1011.6 - -
15/12:00pm 28.6 30.1 23.7 75 3.4 NE 22 24 12 13 1011.9 1011.8 -
15/11:30am 28.1 29.9 23.2 74 3.3 ENE 19 24 10 13 1012.3 - -
15/11:00am 28.0 30.1 23.1 74 3.3 E 17 19 9 10 1012.5 - -
15/10:30am 27.3 29.2 23.5 80 2.6 ENE 19 20 10 11 1012.6 - -
15/10:00am 26.0 27.5 23.1 84 2.0 E 20 22 11 12 1012.6 - -
15/09:30am 26.8 28.2 23.5 82 2.3 E 22 26 12 14 1012.4 - -
15/09:00am 27.0 28.0 22.2 75 3.2 E 20 24 11 13 1012.2 1012.1 -
15/08:30am 27.0 28.1 21.3 71 3.8 E 17 19 9 10 1012.1 - -
15/08:00am 25.4 26.4 21.7 80 2.5 E 19 20 10 11 1011.9 - -
15/07:30am 25.3 27.0 21.6 80 2.5 SSE 15 19 8 10 1011.7 - -
15/07:00am 24.0 26.0 21.5 86 1.7 S 13 15 7 8 1011.3 - -
15/06:30am 23.2 25.3 20.9 87 1.5 WSW 11 13 6 7 1011.2 - -
15/06:00am 23.0 25.0 20.7 87 1.5 N 11 11 6 6 1011.1 1011.0 -
15/05:30am 23.0 25.1 20.9 88 1.4 N 11 13 6 7 1010.9 - -
15/05:00am 23.3 25.9 21.2 88 1.4 N 9 11 5 6 1010.8 - -
15/04:30am 23.1 25.4 20.6 86 1.6 N 9 11 5 6 1010.9 - -
15/04:00am 23.7 27.9 21.0 85 1.8 CALM 0 0 0 0 1010.8 - -
15/03:30am 22.8 24.4 20.0 84 1.8 N 11 13 6 7 1010.9 - -
15/03:00am 23.0 25.1 19.4 80 2.3 NE 7 11 4 6 1010.8 1010.7 -
15/02:30am 23.2 24.0 19.8 81 2.2 NE 15 20 8 11 1011.1 - -
15/02:00am 23.4 25.6 20.5 84 1.9 NNE 9 11 5 6 1010.9 - -
15/01:30am 22.8 25.2 20.1 85 1.7 NE 7 11 4 6 1011.2 - -
15/01:00am 23.0 24.0 20.3 85 1.7 NE 15 20 8 11 1011.4 - -
15/12:30am 23.0 25.1 20.1 84 1.9 SE 9 13 5 7 1011.5 - -
15/12:00am 22.9 24.2 20.2 85 1.7 NE 13 17 7 9 1011.7 1011.6 -
 
Date/Time
WST
Temp
°C
App
Temp
°C
Dew
Point
Rel
Hum
%
Delta-T
°C
Wind Press
QNH
hPa
Press
MSL
hPa
Rain
since 9 am
mm
Dir
 
Spd
km/h
Gust
km/h
Spd
kts
Gust
kts
14/11:30pm 23.4 26.0 20.5 84 1.9 ESE 7 11 4 6 1011.7 - -
14/11:00pm 23.5 26.3 20.4 83 2.0 SSW 6 7 3 4 1011.9 - -
14/10:30pm 23.3 24.1 19.9 81 2.2 SSW 15 19 8 10 1011.7 - -
14/10:00pm 23.3 25.0 20.2 83 2.0 SSW 11 19 6 10 1011.8 - -
14/09:30pm 23.8 23.9 20.3 81 2.3 SW 20 22 11 12 1011.9 - -
14/09:00pm 24.3 23.9 20.2 78 2.7 WSW 22 26 12 14 1011.9 1011.8 -
14/08:30pm 24.7 22.8 19.3 72 3.5 WSW 28 30 15 16 1011.7 - -
14/08:00pm 24.2 24.2 20.1 78 2.7 WSW 20 22 11 12 1011.4 - -
14/07:30pm 24.1 24.0 20.0 78 2.6 WSW 20 20 11 11 1011.2 - -
14/06:30pm 24.3 25.0 19.6 75 3.0 W 15 17 8 9 1010.8 - -
14/06:00pm 25.1 25.8 19.7 72 3.5 W 15 17 8 9 1010.5 - -
14/04:30pm 27.8 29.0 20.6 65 4.7 WSW 15 17 8 9 1010.5 - -
14/04:00pm 28.7 30.3 20.7 62 5.3 W 13 15 7 8 1010.4 - -
14/03:30pm 29.8 31.9 20.1 56 6.4 WSW 9 11 5 6 1010.6 - -
14/03:00pm 30.2 31.5 19.2 51 7.2 W 11 11 6 6 1010.8 1010.7 -
14/02:30pm 30.7 31.7 17.7 45 8.3 SW 9 11 5 6 1010.8 - -
14/02:00pm 32.5 31.2 9.9 25 12.9 S 7 13 4 7 1010.9 - -
14/01:30pm 31.9 30.6 11.1 28 12.1 SSE 9 11 5 6 1011.1 - -
14/01:00pm 30.3 32.0 19.3 51 7.2 SSW 9 11 5 6 1011.6 - -
14/12:30pm 31.1 32.4 18.5 47 8.1 SSE 9 13 5 7 1012.0 - -
14/12:00pm 30.2 30.3 15.5 41 9.1 SSE 9 13 5 7 1012.5 1012.4 -
14/11:30am 28.6 29.2 17.8 52 6.9 SSW 11 15 6 8 1012.9 - -
14/11:00am 28.6 28.7 16.5 48 7.5 SSE 11 13 6 7 1013.4 - -
14/10:30am 28.2 28.3 17.4 52 6.8 SSE 13 15 7 8 1013.7 - -
14/10:00am 28.0 28.3 18.7 57 6.0 S 15 17 8 9 1013.9 - -
14/09:30am 27.4 27.3 17.8 55 6.1 S 15 19 8 10 1013.9 - -
14/09:00am 26.8 26.3 17.8 57 5.7 S 17 19 9 10 1014.0 1013.9 -
14/08:30am 27.1 26.0 17.3 55 6.1 S 19 24 10 13 1013.8 - -
14/08:00am 26.5 25.7 18.4 61 5.2 S 20 26 11 14 1013.5 - -
14/07:30am 25.6 24.6 18.8 66 4.3 S 22 26 12 14 1013.1 - -
14/07:00am 24.9 22.6 17.6 64 4.6 SSW 26 33 14 18 1012.7 - -
14/06:30am 24.3 21.7 17.8 67 4.1 SSW 28 32 15 17 1012.2 - -
14/06:00am 24.4 20.9 17.4 65 4.4 SSW 32 37 17 20 1011.9 1011.8 -
14/05:30am 24.7 20.4 17.7 65 4.4 SW 37 43 20 23 1011.4 - -
14/05:00am 25.0 21.0 17.5 63 4.7 SW 35 43 19 23 1011.3 - -
14/04:30am 24.9 21.0 17.9 65 4.4 SW 35 43 19 23 1011.0 - -
14/04:00am 24.1 22.0 19.8 77 2.8 SW 30 35 16 19 1011.4 - -
14/03:30am 24.2 23.1 19.5 75 3.0 SW 24 28 13 15 1011.8 - -
14/03:00am 24.2 22.8 19.7 76 2.9 SW 26 28 14 15 1011.8 1011.7 -
14/02:30am 24.2 23.3 19.9 77 2.8 SW 24 30 13 16 1012.1 - -
14/02:00am 24.2 22.5 19.7 76 2.9 SW 28 35 15 19 1012.2 - -
14/01:30am 24.3 22.9 19.6 75 3.0 SW 26 32 14 17 1012.4 - -
14/01:00am 24.0 22.6 19.7 77 2.8 SW 26 30 14 16 1012.7 - -
14/12:30am 24.0 23.4 19.7 77 2.8 SW 22 26 12 14 1012.9 - -
14/12:00am 23.8 23.1 19.5 77 2.8 SW 22 26 12 14 1013.2 1013.1 -
 
Date/Time
WST
Temp
°C
App
Temp
°C
Dew
Point
Rel
Hum
%
Delta-T
°C
Wind Press
QNH
hPa
Press
MSL
hPa
Rain
since 9 am
mm
Dir
 
Spd
km/h
Gust
km/h
Spd
kts
Gust
kts
13/11:30pm 24.0 22.8 19.3 75 3.0 SW 24 28 13 15 1013.2 - -
13/11:00pm 24.0 22.4 19.1 74 3.1 WSW 26 28 14 15 1013.2 - -
13/10:30pm 24.0 22.4 19.1 74 3.1 SW 26 28 14 15 1013.4 - -
13/10:00pm 23.7 22.9 19.2 76 2.9 SW 22 26 12 14 1013.5 - -
13/09:30pm 23.3 22.8 19.9 81 2.2 SW 22 24 12 13 1013.7 - -
13/09:00pm 23.0 23.2 20.1 84 1.9 WSW 19 20 10 11 1013.7 1013.6 -
13/08:30pm 22.7 23.5 20.6 88 1.4 WSW 17 20 9 11 1013.6 - -
13/08:00pm 23.1 23.8 21.2 89 1.2 W 19 20 10 11 1013.5 - -
13/07:30pm 23.7 24.4 21.6 88 1.4 W 20 24 11 13 1013.3 - -
13/07:00pm 23.6 23.9 20.7 84 1.9 W 20 24 11 13 1013.0 - -
13/06:30pm 23.9 24.7 19.8 78 2.6 W 15 19 8 10 1012.8 - -
13/06:00pm 24.9 25.8 19.3 71 3.6 W 13 15 7 8 1012.7 1012.6 -
13/05:30pm 26.1 26.7 19.5 67 4.3 W 15 17 8 9 1012.6 - -
13/05:00pm 26.9 28.1 20.0 66 4.5 W 13 19 7 10 1012.5 - -
13/04:30pm 27.9 30.0 21.0 66 4.6 WNW 11 15 6 8 1012.5 - -
13/04:00pm 28.6 29.8 19.0 56 6.2 NNW 11 17 6 9 1012.4 - -
13/03:30pm 33.2 29.5 -2.5 10 16.7 NNE 7 11 4 6 1012.4 - -
13/03:00pm 31.2 29.2 10.0 27 12.1 NE 11 13 6 7 1012.6 1012.5 -
13/02:30pm 30.7 29.4 11.1 30 11.3 NNE 9 11 5 6 1012.9 - -
13/02:00pm 30.0 30.1 16.4 44 8.5 ENE 11 11 6 6 1013.2 - -
13/01:30pm 29.6 29.9 17.1 47 7.9 E 11 13 6 7 1013.5 - -
13/01:00pm 29.4 30.0 17.6 49 7.5 NE 11 11 6 6 1013.8 - -

Other Formats:

Comma delimited format used in spreadsheet applications
http://www.bom.gov.au/fwo/IDW60801/IDW60801.94310.axf

JavaScript Object Notation format (JSON) in row-major order
http://www.bom.gov.au/fwo/IDW60801/IDW60801.94310.json